Time;durP1;ratioP1;P1;durP2;ratioP2;P2;SDS_P1;SDS_P2;PMS_P1;PMS_P2;Temp;Humidity;BMP_temperature;BMP_pressure;BME280_temperature;BME280_humidity;BME280_pressure;Samples;Min_cycle;Max_cycle;Signal;HPM_P1;HPM_P2
2023/06/06 00:02:42;;;;;;;6.15;3.60;;;23.40;45.60;;;;;;6242093;28;20033;-69
2023/06/06 00:05:43;;;;;;;6.70;3.60;;;23.30;45.60;;;;;;6243572;28;20136;-69
2023/06/06 00:08:44;;;;;;;5.57;3.55;;;23.30;45.80;;;;;;6241930;28;20030;-68
2023/06/06 00:11:46;;;;;;;7.97;3.65;;;23.30;46.10;;;;;;6241630;28;20510;-69
2023/06/06 00:14:47;;;;;;;9.77;3.63;;;23.20;46.30;;;;;;6242305;28;20038;-69
2023/06/06 00:17:53;;;;;;;13.80;3.33;;;23.20;46.40;;;;;;6243450;28;20037;-69
2023/06/06 00:20:54;;;;;;;5.15;3.60;;;23.10;46.50;;;;;;6242994;28;20497;-69
2023/06/06 00:23:56;;;;;;;10.98;4.13;;;23.10;46.90;;;;;;6241428;28;20045;-69
2023/06/06 00:26:57;;;;;;;9.35;4.20;;;23.10;47.10;;;;;;6242674;28;20087;-68
2023/06/06 00:29:58;;;;;;;8.95;3.78;;;23.10;47.20;;;;;;6242990;28;20397;-69
2023/06/06 00:32:58;;;;;;;4.57;3.28;;;23.00;47.40;;;;;;6241077;28;20425;-69
2023/06/06 00:35:59;;;;;;;6.28;4.03;;;23.00;47.50;;;;;;6241394;28;20033;-68
2023/06/06 00:39:00;;;;;;;8.45;3.63;;;23.00;47.70;;;;;;6241381;28;20133;-70
2023/06/06 00:42:01;;;;;;;7.43;3.30;;;23.00;48.00;;;;;;6241707;28;20072;-68
2023/06/06 00:45:02;;;;;;;8.50;4.07;;;23.00;48.00;;;;;;6242793;28;20025;-70
2023/06/06 00:48:03;;;;;;;9.45;3.90;;;22.90;48.10;;;;;;6241408;28;20083;-68
2023/06/06 00:51:05;;;;;;;7.70;4.03;;;22.90;48.30;;;;;;6241311;28;20037;-69
2023/06/06 00:54:07;;;;;;;9.90;3.92;;;22.80;48.50;;;;;;6242336;28;20091;-68
2023/06/06 00:57:09;;;;;;;7.75;4.20;;;22.80;48.80;;;;;;6240554;28;20033;-69
2023/06/06 01:00:11;;;;;;;9.13;3.67;;;22.70;48.80;;;;;;6241517;28;20026;-68
2023/06/06 01:03:14;;;;;;;10.10;3.72;;;22.70;48.90;;;;;;6241629;28;20033;-69
2023/06/06 01:06:15;;;;;;;8.80;3.42;;;22.60;49.00;;;;;;6240686;28;20048;-69
2023/06/06 01:09:16;;;;;;;6.28;3.50;;;22.60;49.40;;;;;;6240581;28;20384;-68
2023/06/06 01:12:26;;;;;;;7.60;4.85;;;22.60;49.70;;;;;;6241525;28;20112;-69
2023/06/06 01:15:42;;;;;;;10.80;4.50;;;22.60;49.80;;;;;;6241537;28;20033;-68
2023/06/06 01:18:45;;;;;;;9.18;3.85;;;22.60;49.90;;;;;;6241861;28;20037;-69
2023/06/06 01:21:48;;;;;;;12.73;3.70;;;22.60;49.80;;;;;;6239834;28;20029;-69
2023/06/06 01:24:52;;;;;;;8.18;4.22;;;22.60;49.90;;;;;;6239980;28;20127;-68
2023/06/06 01:27:55;;;;;;;11.35;4.35;;;22.60;49.90;;;;;;6240195;28;20051;-69
2023/06/06 01:30:56;;;;;;;8.68;4.07;;;22.60;50.10;;;;;;6239695;28;20185;-69
2023/06/06 01:34:06;;;;;;;7.07;3.70;;;22.60;50.20;;;;;;6231496;28;20041;-70
2023/06/06 01:37:27;;;;;;;7.90;3.00;;;22.60;50.30;;;;;;6217130;28;20029;-68
2023/06/06 01:40:32;;;;;;;9.02;3.30;;;22.60;50.40;;;;;;6215284;28;20116;-69
2023/06/06 01:43:35;;;;;;;4.95;3.47;;;22.60;50.20;;;;;;6216587;28;20105;-69
2023/06/06 01:46:37;;;;;;;11.57;4.13;;;22.60;50.00;;;;;;6214784;28;20427;-69
2023/06/06 01:49:41;;;;;;;4.70;3.10;;;22.50;50.00;;;;;;6215262;28;20044;-69
2023/06/06 01:52:42;;;;;;;5.18;3.47;;;22.50;50.00;;;;;;6230070;28;20136;-69
2023/06/06 01:55:42;;;;;;;8.45;3.25;;;22.50;50.00;;;;;;6239419;28;20037;-69
2023/06/06 01:58:43;;;;;;;5.78;3.42;;;22.50;49.90;;;;;;6240842;28;20037;-68
2023/06/06 02:01:44;;;;;;;4.97;3.20;;;22.50;49.90;;;;;;6239026;28;20034;-69
2023/06/06 02:04:45;;;;;;;10.23;3.85;;;22.50;49.90;;;;;;6204240;28;20026;-68
2023/06/06 02:07:49;;;;;;;8.10;3.45;;;22.50;49.80;;;;;;6221074;28;20108;-68
2023/06/06 02:10:50;;;;;;;11.35;3.45;;;22.40;49.80;;;;;;6238877;28;20040;-68
2023/06/06 02:13:51;;;;;;;7.07;3.58;;;22.40;49.90;;;;;;6222540;28;20044;-70
2023/06/06 02:16:52;;;;;;;8.00;3.78;;;22.40;49.90;;;;;;6238704;28;20111;-68
2023/06/06 02:19:53;;;;;;;5.60;3.58;;;22.40;49.90;;;;;;6238817;28;20081;-67
2023/06/06 02:22:54;;;;;;;4.18;2.95;;;22.40;50.10;;;;;;6239533;28;20032;-69
2023/06/06 02:25:55;;;;;;;7.85;3.53;;;22.40;50.10;;;;;;6240017;28;20152;-69
2023/06/06 02:28:55;;;;;;;6.10;4.07;;;22.40;50.20;;;;;;6238630;28;20044;-69
2023/06/06 02:31:56;;;;;;;6.70;3.65;;;22.30;50.20;;;;;;6239487;28;20053;-69
2023/06/06 02:35:00;;;;;;;6.88;3.47;;;22.30;50.20;;;;;;6238687;28;20029;-69
2023/06/06 02:38:00;;;;;;;11.75;3.72;;;22.20;50.30;;;;;;6238912;28;20033;-68
2023/06/06 02:41:01;;;;;;;7.90;3.95;;;22.10;50.80;;;;;;6238161;28;20103;-68
2023/06/06 02:44:03;;;;;;;6.15;3.42;;;22.10;50.40;;;;;;6237750;28;20022;-68
2023/06/06 02:47:05;;;;;;;7.03;3.88;;;22.10;50.40;;;;;;6238687;28;20033;-68
2023/06/06 02:50:07;;;;;;;7.72;3.95;;;22.10;50.50;;;;;;6238111;28;20369;-66
2023/06/06 02:53:08;;;;;;;8.68;4.20;;;22.00;50.60;;;;;;6220239;28;20034;-67
2023/06/06 02:56:10;;;;;;;7.70;4.00;;;22.00;50.60;;;;;;6219847;28;20037;-68
2023/06/06 02:59:11;;;;;;;7.03;3.47;;;22.00;50.60;;;;;;6239499;28;20049;-69
2023/06/06 03:02:12;;;;;;;5.78;4.15;;;21.90;50.80;;;;;;6238961;28;20030;-68
2023/06/06 03:05:13;;;;;;;7.13;4.22;;;21.90;50.90;;;;;;6237593;28;20037;-68
2023/06/06 03:08:15;;;;;;;5.53;3.70;;;21.80;51.70;;;;;;6237763;28;20647;-68
2023/06/06 03:11:17;;;;;;;6.78;3.75;;;21.80;51.30;;;;;;6237395;28;20480;-68
2023/06/06 03:14:17;;;;;;;12.32;4.43;;;21.70;51.50;;;;;;6238046;28;20114;-69
2023/06/06 03:17:18;;;;;;;6.10;4.13;;;21.60;51.70;;;;;;6237788;28;20614;-68
2023/06/06 03:20:20;;;;;;;6.97;3.70;;;21.30;51.60;;;;;;6237680;28;20825;-68
2023/06/06 03:23:29;;;;;;;13.75;4.72;;;21.50;51.90;;;;;;6237277;28;20032;-68
2023/06/06 03:26:31;;;;;;;7.25;4.32;;;21.40;52.00;;;;;;6237693;28;20681;-68
2023/06/06 03:29:35;;;;;;;8.90;4.25;;;21.40;52.20;;;;;;6240877;28;20033;-67
2023/06/06 03:32:36;;;;;;;6.30;3.88;;;21.40;52.30;;;;;;6242438;28;20102;-69
2023/06/06 03:35:37;;;;;;;6.88;4.07;;;21.30;52.50;;;;;;6242669;28;20037;-67
2023/06/06 03:38:39;;;;;;;10.48;3.53;;;21.20;52.70;;;;;;6242900;28;20041;-68
2023/06/06 03:41:40;;;;;;;7.82;4.03;;;21.20;52.90;;;;;;6242058;28;20740;-68
2023/06/06 03:44:43;;;;;;;8.60;3.72;;;21.20;53.00;;;;;;6243879;28;20510;-68
2023/06/06 03:47:45;;;;;;;8.48;4.03;;;21.20;53.10;;;;;;6243682;28;20021;-68
2023/06/06 03:50:46;;;;;;;7.05;4.30;;;21.20;53.40;;;;;;6241910;28;20038;-68
2023/06/06 03:53:47;;;;;;;10.93;4.32;;;21.10;53.60;;;;;;6241598;28;20030;-68
2023/06/06 03:56:48;;;;;;;11.85;4.25;;;21.10;53.70;;;;;;6217458;28;20205;-69
2023/06/06 03:59:49;;;;;;;7.75;4.07;;;21.00;53.70;;;;;;6221525;28;20037;-68
2023/06/06 04:02:51;;;;;;;8.30;4.07;;;21.00;53.70;;;;;;6242904;28;20025;-68
2023/06/06 04:05:53;;;;;;;7.05;3.88;;;21.00;53.60;;;;;;6242127;28;20474;-67
2023/06/06 04:08:56;;;;;;;6.63;4.15;;;21.00;53.50;;;;;;6241674;28;20056;-68
2023/06/06 04:11:57;;;;;;;11.52;4.88;;;21.00;53.30;;;;;;6241684;28;20116;-68
2023/06/06 04:14:58;;;;;;;10.50;4.00;;;21.00;53.10;;;;;;6241457;28;20029;-67
2023/06/06 04:17:59;;;;;;;11.32;3.25;;;21.10;53.10;;;;;;6241589;28;20477;-69
2023/06/06 04:21:00;;;;;;;5.68;2.97;;;21.10;53.10;;;;;;6242661;28;20132;-68
2023/06/06 04:24:01;;;;;;;9.80;2.95;;;21.10;53.10;;;;;;6241080;28;20391;-67
2023/06/06 04:27:03;;;;;;;7.75;2.97;;;21.10;53.20;;;;;;6236996;28;20026;-68
2023/06/06 04:30:12;;;;;;;7.70;3.53;;;21.10;53.20;;;;;;6231994;28;20079;-66
2023/06/06 04:33:16;;;;;;;4.70;2.80;;;21.10;53.20;;;;;;6220017;28;20040;-68
2023/06/06 04:36:17;;;;;;;9.57;3.28;;;21.10;53.20;;;;;;6256055;28;20122;-67
2023/06/06 04:39:23;;;;;;;6.13;3.25;;;21.10;53.30;;;;;;6241275;28;20021;-68
2023/06/06 04:42:32;;;;;;;4.32;2.83;;;21.10;53.30;;;;;;6240961;28;20132;-68
2023/06/06 04:45:34;;;;;;;4.30;2.83;;;21.10;53.30;;;;;;6217177;28;20026;-67
2023/06/06 04:48:35;;;;;;;4.20;2.70;;;21.10;53.20;;;;;;6226955;28;20025;-67
2023/06/06 04:51:37;;;;;;;9.93;2.95;;;21.10;53.20;;;;;;6240828;28;20166;-69
2023/06/06 04:54:40;;;;;;;5.55;3.20;;;21.10;53.20;;;;;;6241278;28;20029;-70
2023/06/06 04:57:41;;;;;;;4.20;2.65;;;21.20;53.20;;;;;;6242465;28;20112;-69
2023/06/06 05:00:47;;;;;;;8.60;4.10;;;21.20;53.20;;;;;;6234873;28;20029;-68
2023/06/06 05:03:48;;;;;;;6.65;3.50;;;21.20;53.10;;;;;;6230089;28;20033;-69
2023/06/06 05:06:50;;;;;;;6.15;3.13;;;21.30;53.10;;;;;;6242126;28;20060;-70
2023/06/06 05:09:52;;;;;;;9.63;3.13;;;21.30;53.00;;;;;;6239995;28;20139;-69
2023/06/06 05:12:53;;;;;;;4.97;3.17;;;21.30;53.00;;;;;;6222097;28;20032;-69
2023/06/06 05:15:54;;;;;;;7.00;2.97;;;21.30;52.90;;;;;;6241821;28;20025;-68
2023/06/06 05:18:55;;;;;;;5.32;3.22;;;21.30;52.80;;;;;;6241924;28;20028;-68
2023/06/06 05:21:56;;;;;;;6.68;3.15;;;21.30;52.80;;;;;;6240000;28;20058;-70
2023/06/06 05:24:56;;;;;;;4.95;3.40;;;21.30;52.80;;;;;;6254839;28;20037;-69
2023/06/06 05:27:57;;;;;;;4.82;3.15;;;21.30;52.80;;;;;;6263158;28;20025;-69
2023/06/06 05:30:59;;;;;;;6.97;3.40;;;21.40;52.90;;;;;;6239846;28;20054;-69
2023/06/06 05:34:03;;;;;;;4.88;3.10;;;21.40;52.80;;;;;;6240825;28;20029;-69
2023/06/06 05:37:04;;;;;;;6.38;3.47;;;21.40;52.70;;;;;;6239666;28;20033;-68
2023/06/06 05:40:06;;;;;;;6.22;3.17;;;21.40;52.70;;;;;;6256660;28;20517;-68
2023/06/06 05:43:06;;;;;;;7.65;3.28;;;21.40;52.70;;;;;;6241608;28;20096;-68
2023/06/06 05:46:07;;;;;;;10.48;3.88;;;21.40;52.70;;;;;;6239513;28;20227;-68
2023/06/06 05:49:08;;;;;;;7.88;4.15;;;21.50;52.70;;;;;;6239059;28;20034;-68
2023/06/06 05:52:09;;;;;;;12.07;3.55;;;21.50;52.70;;;;;;6239235;28;20431;-68
2023/06/06 05:55:32;;;;;;;9.25;4.32;;;21.60;52.70;;;;;;6240483;28;20104;-68
2023/06/06 05:58:33;;;;;;;9.77;4.72;;;21.60;52.60;;;;;;6215448;28;20102;-68
2023/06/06 06:01:34;;;;;;;9.95;4.55;;;21.70;52.50;;;;;;6214949;28;20030;-68
2023/06/06 06:04:35;;;;;;;10.60;5.05;;;21.80;52.30;;;;;;6215272;28;20037;-69
2023/06/06 06:07:37;;;;;;;9.35;4.55;;;21.90;52.20;;;;;;6223094;28;20052;-68
2023/06/06 06:10:38;;;;;;;8.60;4.60;;;22.00;52.10;;;;;;6239902;28;20030;-68
2023/06/06 06:13:39;;;;;;;9.45;4.68;;;22.00;51.90;;;;;;6239055;28;20041;-69
2023/06/06 06:16:40;;;;;;;7.93;4.50;;;22.10;51.70;;;;;;6240044;28;20056;-68
2023/06/06 06:19:41;;;;;;;11.70;4.18;;;22.20;51.50;;;;;;6238315;28;20040;-69
2023/06/06 06:22:42;;;;;;;7.82;3.97;;;22.20;51.30;;;;;;6238242;28;20053;-68
2023/06/06 06:25:44;;;;;;;11.90;4.20;;;22.30;51.20;;;;;;6240255;28;20029;-68
2023/06/06 06:28:46;;;;;;;16.08;4.65;;;22.30;51.20;;;;;;6239105;28;20052;-70
2023/06/06 06:31:47;;;;;;;11.48;5.43;;;22.40;51.20;;;;;;6238227;28;20040;-70
2023/06/06 06:34:48;;;;;;;11.18;4.70;;;22.50;51.10;;;;;;6214294;28;20486;-69
2023/06/06 06:37:49;;;;;;;7.45;4.22;;;22.60;50.80;;;;;;6215362;28;20068;-69
2023/06/06 06:40:50;;;;;;;10.05;4.78;;;22.70;50.70;;;;;;6216363;28;20026;-68
2023/06/06 06:43:51;;;;;;;11.10;4.63;;;22.80;50.50;;;;;;6215481;28;20026;-68
2023/06/06 06:46:52;;;;;;;9.23;4.47;;;22.90;50.50;;;;;;6214452;28;20132;-69
2023/06/06 06:49:53;;;;;;;15.93;4.57;;;23.00;50.40;;;;;;6229667;28;20033;-68
2023/06/06 06:52:55;;;;;;;8.77;3.80;;;23.00;50.10;;;;;;6239902;28;20041;-68
2023/06/06 06:55:55;;;;;;;7.68;4.30;;;23.10;49.80;;;;;;6234362;28;20136;-69
2023/06/06 06:58:57;;;;;;;7.30;4.07;;;23.10;49.80;;;;;;6216290;28;20065;-70
2023/06/06 07:01:59;;;;;;;9.43;4.32;;;23.20;49.70;;;;;;6230672;28;20049;-68
2023/06/06 07:05:01;;;;;;;13.70;3.90;;;23.30;49.50;;;;;;6233340;28;20534;-71
2023/06/06 07:08:02;;;;;;;7.88;4.50;;;23.40;49.30;;;;;;6240855;28;20109;-69
2023/06/06 07:11:03;;;;;;;6.95;3.70;;;23.50;49.20;;;;;;6240599;28;20092;-70
2023/06/06 07:14:04;;;;;;;9.13;4.22;;;23.70;49.10;;;;;;6238569;28;20033;-69
2023/06/06 07:17:07;;;;;;;8.07;3.90;;;23.80;48.90;;;;;;6239771;28;20037;-69
2023/06/06 07:20:08;;;;;;;10.95;4.50;;;24.00;48.50;;;;;;6238440;28;20103;-69
2023/06/06 07:23:09;;;;;;;6.90;4.07;;;24.00;48.00;;;;;;6221452;28;20052;-69
2023/06/06 07:26:10;;;;;;;7.22;4.28;;;24.10;47.90;;;;;;6239214;28;20034;-70
2023/06/06 07:29:11;;;;;;;9.32;4.05;;;24.20;47.70;;;;;;6238804;28;20098;-69
2023/06/06 07:32:12;;;;;;;8.45;4.05;;;24.30;47.40;;;;;;6239295;28;20091;-69
2023/06/06 07:35:15;;;;;;;5.65;3.50;;;24.30;47.10;;;;;;6239574;28;20030;-70
2023/06/06 07:38:16;;;;;;;7.85;3.67;;;24.50;46.90;;;;;;6239684;28;20116;-68
2023/06/06 07:41:17;;;;;;;7.78;3.63;;;24.50;46.60;;;;;;6237670;28;20160;-68
2023/06/06 07:44:18;;;;;;;8.68;3.40;;;24.50;46.40;;;;;;6239833;28;20021;-69
2023/06/06 07:47:19;;;;;;;8.98;3.90;;;24.60;46.30;;;;;;6240259;28;20025;-69
2023/06/06 07:50:20;;;;;;;7.85;3.95;;;24.70;46.20;;;;;;6238797;28;20033;-70
2023/06/06 07:53:21;;;;;;;8.30;3.33;;;24.70;46.00;;;;;;6219941;28;20033;-68
2023/06/06 07:56:23;;;;;;;6.15;3.70;;;24.90;45.70;;;;;;6222828;28;20347;-69
2023/06/06 07:59:24;;;;;;;5.40;3.70;;;25.10;45.50;;;;;;6221391;28;20045;-71
2023/06/06 08:02:25;;;;;;;11.20;4.10;;;25.20;45.10;;;;;;6238930;28;20847;-68
2023/06/06 08:05:25;;;;;;;5.63;3.38;;;25.30;44.70;;;;;;6238024;28;20082;-69
2023/06/06 08:08:26;;;;;;;8.98;4.03;;;25.40;44.70;;;;;;6237820;28;20124;-69
2023/06/06 08:11:27;;;;;;;7.78;3.80;;;25.60;44.50;;;;;;6239445;28;20116;-70
2023/06/06 08:14:29;;;;;;;9.15;3.42;;;25.70;44.00;;;;;;6240674;28;20036;-69
2023/06/06 08:17:30;;;;;;;6.97;3.67;;;25.70;43.70;;;;;;6243647;28;20037;-69
2023/06/06 08:20:31;;;;;;;7.97;4.63;;;25.70;43.70;;;;;;6243597;28;20627;-69
2023/06/06 08:23:33;;;;;;;8.23;3.95;;;25.70;43.70;;;;;;6243018;28;20033;-69
2023/06/06 08:26:34;;;;;;;9.88;4.20;;;25.80;43.80;;;;;;6243489;28;20116;-68
2023/06/06 08:29:35;;;;;;;5.68;3.40;;;25.90;43.60;;;;;;6243609;28;20109;-69
2023/06/06 08:32:37;;;;;;;8.23;4.03;;;26.20;43.50;;;;;;6241144;28;20028;-71
2023/06/06 08:35:38;;;;;;;5.45;2.97;;;26.30;43.20;;;;;;6243161;28;20061;-69
2023/06/06 08:38:39;;;;;;;9.93;3.35;;;26.50;43.00;;;;;;6243231;28;20820;-69
2023/06/06 08:41:48;;;;;;;11.82;4.07;;;26.70;42.70;;;;;;6242718;28;20037;-68
2023/06/06 08:44:54;;;;;;;9.48;3.63;;;26.80;42.40;;;;;;6257689;28;20087;-69
2023/06/06 08:47:55;;;;;;;5.78;3.60;;;26.90;42.10;;;;;;6243191;28;20132;-68
2023/06/06 08:50:57;;;;;;;8.65;4.35;;;27.00;42.00;;;;;;6241795;28;20087;-69
2023/06/06 08:54:02;;;;;;;11.43;4.10;;;27.10;41.70;;;;;;6216612;28;20109;-68
2023/06/06 08:57:07;;;;;;;11.02;4.57;;;27.20;41.70;;;;;;6230491;28;20457;-68
2023/06/06 09:00:20;;;;;;;7.80;4.00;;;27.20;41.40;;;;;;6241470;28;20129;-69
2023/06/06 09:03:22;;;;;;;8.45;3.95;;;27.30;41.30;;;;;;6241180;28;20445;-67
2023/06/06 09:06:23;;;;;;;10.30;4.13;;;27.30;41.00;;;;;;6224432;28;20063;-68
2023/06/06 09:09:25;;;;;;;6.53;3.33;;;27.30;41.00;;;;;;6242238;28;20114;-69
2023/06/06 09:12:26;;;;;;;7.95;3.47;;;27.40;41.00;;;;;;6240571;28;20076;-68
2023/06/06 09:15:27;;;;;;;7.00;3.42;;;27.50;41.00;;;;;;6242486;28;20080;-68
2023/06/06 09:18:28;;;;;;;5.47;3.65;;;27.50;40.80;;;;;;6240987;28;20124;-68
2023/06/06 09:21:32;;;;;;;7.60;3.78;;;27.50;40.80;;;;;;6241556;28;20029;-68
2023/06/06 09:24:33;;;;;;;6.28;3.58;;;27.40;40.90;;;;;;6242166;28;20041;-70
2023/06/06 09:27:33;;;;;;;7.70;3.63;;;27.30;41.10;;;;;;6240858;28;20029;-68
2023/06/06 09:30:35;;;;;;;23.17;3.95;;;27.30;41.20;;;;;;6208133;28;20041;-70
2023/06/06 09:33:40;;;;;;;6.40;3.67;;;27.40;41.40;;;;;;6241288;28;20547;-70
2023/06/06 09:36:42;;;;;;;9.80;3.70;;;27.50;41.40;;;;;;6242122;28;20036;-69
2023/06/06 09:39:43;;;;;;;8.95;3.53;;;27.60;41.30;;;;;;6241730;28;20037;-70
2023/06/06 09:42:45;;;;;;;10.48;3.63;;;27.70;41.20;;;;;;6221424;28;20462;-68
2023/06/06 09:45:55;;;;;;;12.65;4.10;;;27.80;41.00;;;;;;6217508;28;20664;-70
2023/06/06 09:48:58;;;;;;;7.25;3.60;;;27.80;41.00;;;;;;6217059;28;20058;-68
2023/06/06 09:51:59;;;;;;;7.05;3.63;;;27.80;41.10;;;;;;6224512;28;20121;-70
2023/06/06 09:55:00;;;;;;;6.70;3.63;;;27.80;41.00;;;;;;6242116;28;20038;-69
2023/06/06 09:58:02;;;;;;;7.60;3.65;;;27.90;41.00;;;;;;6242670;28;20075;-68
2023/06/06 10:01:04;;;;;;;5.75;3.72;;;27.90;41.00;;;;;;6241455;28;20473;-69
2023/06/06 10:04:06;;;;;;;11.43;3.83;;;27.90;41.10;;;;;;6241376;28;20125;-70
2023/06/06 10:07:09;;;;;;;4.28;3.13;;;28.00;41.30;;;;;;6241128;28;20033;-69
2023/06/06 10:10:15;;;;;;;8.30;3.53;;;27.90;41.10;;;;;;6223002;28;20060;-69
2023/06/06 10:13:18;;;;;;;6.53;3.92;;;27.90;41.00;;;;;;6239177;28;20026;-69
2023/06/06 10:16:20;;;;;;;7.75;4.10;;;28.00;41.10;;;;;;6241086;28;20030;-69
2023/06/06 10:19:22;;;;;;;9.07;4.20;;;28.10;41.10;;;;;;6240669;28;20474;-70
2023/06/06 10:22:23;;;;;;;5.90;3.53;;;28.10;41.20;;;;;;6240289;28;20045;-69
2023/06/06 10:25:24;;;;;;;7.53;3.80;;;28.20;41.00;;;;;;6238740;28;20025;-69
2023/06/06 10:28:35;;;;;;;5.07;3.65;;;28.30;40.80;;;;;;6240600;28;20693;-69
2023/06/06 10:31:48;;;;;;;4.90;3.60;;;28.40;40.50;;;;;;6239613;28;20454;-69
2023/06/06 10:34:52;;;;;;;10.05;3.92;;;28.50;40.40;;;;;;6221952;28;20677;-69
2023/06/06 10:38:09;;;;;;;5.75;3.30;;;28.60;40.20;;;;;;6239491;28;20072;-69
2023/06/06 10:41:16;;;;;;;6.78;3.90;;;28.60;40.10;;;;;;6239548;28;20021;-69
2023/06/06 10:44:56;;;;;;;6.38;3.63;;;28.70;39.80;;;;;;6238755;28;20393;-69
2023/06/06 10:48:01;;;;;;;5.65;3.55;;;28.80;39.90;;;;;;6171029;28;20117;-68
2023/06/06 10:51:02;;;;;;;6.43;3.80;;;29.00;39.80;;;;;;6187836;28;20034;-69
2023/06/06 10:54:21;;;;;;;5.63;3.45;;;29.10;39.60;;;;;;6211620;28;20049;-68
2023/06/06 10:57:22;;;;;;;6.10;3.47;;;29.20;39.60;;;;;;6195688;28;20057;-69
2023/06/06 11:00:25;;;;;;;8.32;4.00;;;29.30;39.60;;;;;;6186982;28;20065;-70
2023/06/06 11:03:38;;;;;;;7.63;4.00;;;29.50;39.60;;;;;;6170551;28;20042;-68
2023/06/06 11:06:39;;;;;;;7.95;3.50;;;30.20;38.50;;;;;;6186616;28;20045;-69
2023/06/06 11:09:42;;;;;;;7.18;3.60;;;31.10;37.10;;;;;;6170956;28;20038;-69
2023/06/06 11:12:48;;;;;;;6.78;4.28;;;32.00;36.00;;;;;;6170313;28;20035;-68
2023/06/06 11:15:55;;;;;;;6.80;3.72;;;32.90;34.60;;;;;;6170732;28;20487;-69
2023/06/06 11:19:11;;;;;;;9.30;3.53;;;33.60;33.40;;;;;;6222022;28;20048;-69
2023/06/06 11:22:21;;;;;;;7.72;3.67;;;34.40;32.40;;;;;;6220909;28;20057;-69
2023/06/06 11:25:25;;;;;;;8.75;3.80;;;34.80;31.80;;;;;;6237652;28;20029;-71
2023/06/06 11:28:26;;;;;;;5.47;3.53;;;35.10;31.40;;;;;;6239331;28;20067;-70
2023/06/06 11:31:27;;;;;;;5.57;3.25;;;35.40;31.10;;;;;;6237091;28;20090;-70
2023/06/06 11:34:32;;;;;;;5.82;3.58;;;35.80;30.40;;;;;;6228791;28;20079;-69
2023/06/06 11:37:33;;;;;;;8.13;3.40;;;35.90;29.90;;;;;;6237509;28;20040;-68
2023/06/06 11:40:33;;;;;;;8.77;3.67;;;36.00;29.80;;;;;;6237787;28;20733;-69
2023/06/06 11:43:35;;;;;;;9.57;3.70;;;36.20;29.70;;;;;;6237378;28;20041;-69
2023/06/06 11:46:52;;;;;;;5.35;3.47;;;36.50;29.50;;;;;;6239083;28;20018;-68
2023/06/06 11:49:53;;;;;;;5.55;3.45;;;36.80;29.20;;;;;;6241158;28;20028;-68
2023/06/06 11:52:54;;;;;;;7.75;3.20;;;37.10;28.80;;;;;;6242619;28;20029;-68
2023/06/06 11:55:55;;;;;;;5.63;3.58;;;37.30;28.50;;;;;;6243721;28;20448;-69
2023/06/06 11:58:56;;;;;;;5.20;3.50;;;37.60;28.00;;;;;;6225774;28;20059;-69
2023/06/06 12:01:58;;;;;;;5.05;3.47;;;37.70;27.70;;;;;;6243471;28;20033;-70
2023/06/06 12:04:59;;;;;;;3.97;3.15;;;37.80;27.50;;;;;;6244219;28;20045;-69
2023/06/06 12:08:00;;;;;;;10.30;3.53;;;37.80;27.40;;;;;;6244334;28;20027;-70
2023/06/06 12:11:23;;;;;;;6.07;3.33;;;37.90;27.20;;;;;;6242328;28;20423;-69
2023/06/06 12:14:25;;;;;;;4.13;2.90;;;38.10;26.80;;;;;;6241978;28;20457;-69
2023/06/06 12:17:28;;;;;;;3.97;3.00;;;38.20;26.50;;;;;;6243462;28;20108;-68
2023/06/06 12:20:29;;;;;;;4.05;2.80;;;38.30;26.10;;;;;;6241733;28;20116;-69
2023/06/06 12:23:30;;;;;;;4.65;3.13;;;38.40;25.70;;;;;;6243029;28;20409;-69
2023/06/06 12:26:45;;;;;;;5.63;3.40;;;38.50;25.10;;;;;;6243395;28;20033;-68
2023/06/06 12:29:50;;;;;;;4.72;2.85;;;38.50;24.90;;;;;;6225852;28;20024;-69
2023/06/06 12:32:53;;;;;;;5.00;3.17;;;38.50;24.60;;;;;;6242784;28;20425;-69
2023/06/06 12:36:13;;;;;;;8.15;3.90;;;38.50;24.30;;;;;;6242137;28;20033;-70
2023/06/06 12:39:14;;;;;;;4.13;2.75;;;38.50;24.30;;;;;;6241915;28;20041;-70
2023/06/06 12:42:18;;;;;;;4.82;2.88;;;38.40;24.20;;;;;;6240885;28;20574;-68
2023/06/06 12:45:20;;;;;;;3.00;2.55;;;38.40;24.10;;;;;;6241728;28;20428;-69
2023/06/06 12:48:22;;;;;;;6.50;2.95;;;38.70;23.60;;;;;;6242861;28;20034;-69
2023/06/06 12:51:24;;;;;;;9.35;2.97;;;38.90;23.00;;;;;;6243031;28;20025;-69
2023/06/06 12:54:25;;;;;;;5.32;3.90;;;39.30;22.50;;;;;;6243279;28;20025;-69
2023/06/06 12:57:26;;;;;;;6.63;2.90;;;39.40;22.00;;;;;;6242699;28;20094;-71
2023/06/06 13:00:27;;;;;;;5.30;3.25;;;39.30;22.00;;;;;;6241109;28;20777;-69
2023/06/06 13:03:27;;;;;;;3.65;2.78;;;39.20;21.90;;;;;;6224245;28;20116;-70
2023/06/06 13:06:28;;;;;;;7.10;2.58;;;39.30;21.40;;;;;;6241540;28;20028;-70
2023/06/06 13:09:30;;;;;;;5.15;2.72;;;39.80;21.10;;;;;;6242766;28;20096;-70
2023/06/06 13:12:31;;;;;;;6.45;3.10;;;40.00;20.90;;;;;;6240343;28;20040;-70
2023/06/06 13:15:32;;;;;;;5.60;3.05;;;40.40;20.80;;;;;;6239194;28;20101;-71
2023/06/06 13:18:37;;;;;;;13.07;2.80;;;41.00;20.50;;;;;;6231712;28;20025;-69
2023/06/06 13:21:38;;;;;;;6.47;2.97;;;41.40;20.30;;;;;;6231555;28;20025;-69
2023/06/06 13:24:39;;;;;;;4.65;2.95;;;41.80;20.20;;;;;;6240885;28;20029;-70
2023/06/06 13:27:40;;;;;;;6.90;3.10;;;41.40;20.20;;;;;;6233449;28;20189;-69
2023/06/06 13:30:41;;;;;;;5.18;3.22;;;40.70;21.00;;;;;;6241141;28;20055;-68
2023/06/06 13:33:42;;;;;;;6.03;2.78;;;40.50;21.30;;;;;;6240702;28;20030;-71
2023/06/06 13:36:42;;;;;;;3.58;2.67;;;40.60;20.90;;;;;;6241015;28;20040;-69
2023/06/06 13:39:43;;;;;;;4.10;2.85;;;40.70;20.40;;;;;;6241256;28;20371;-69
2023/06/06 13:42:45;;;;;;;5.07;3.00;;;41.20;20.00;;;;;;6231339;28;20038;-71
2023/06/06 13:45:46;;;;;;;5.40;3.20;;;41.70;19.80;;;;;;6229102;28;20025;-69
2023/06/06 13:48:48;;;;;;;5.93;3.13;;;42.40;19.40;;;;;;6240842;28;20406;-68
2023/06/06 13:51:49;;;;;;;4.82;2.80;;;42.70;18.90;;;;;;6230715;28;20132;-70
2023/06/06 13:54:51;;;;;;;4.45;2.92;;;42.80;18.60;;;;;;6231138;28;20067;-70
2023/06/06 13:57:53;;;;;;;5.32;3.33;;;43.00;18.70;;;;;;6213770;28;20399;-69
2023/06/06 14:00:53;;;;;;;3.95;2.70;;;43.20;18.50;;;;;;6228648;28;20074;-68
2023/06/06 14:03:55;;;;;;;8.00;2.90;;;43.50;18.10;;;;;;6230735;28;20037;-69
2023/06/06 14:06:56;;;;;;;4.95;3.00;;;43.90;17.80;;;;;;6240453;28;20051;-69
2023/06/06 14:09:57;;;;;;;7.75;2.60;;;43.90;17.70;;;;;;6240244;28;20022;-70
2023/06/06 14:12:58;;;;;;;3.30;2.90;;;43.90;17.60;;;;;;6230227;28;20508;-70
2023/06/06 14:15:59;;;;;;;4.93;2.97;;;44.00;17.30;;;;;;6241254;28;20096;-68
2023/06/06 14:19:00;;;;;;;5.00;2.83;;;44.00;17.30;;;;;;6230542;28;20057;-69
2023/06/06 14:25:12;;;;;;;6.30;2.72;;;44.00;17.20;;;;;;6240377;28;20025;-69
2023/06/06 14:28:13;;;;;;;6.57;2.67;;;44.10;17.10;;;;;;6237668;28;20081;-70
2023/06/06 14:31:13;;;;;;;3.15;2.70;;;44.30;16.80;;;;;;6239616;28;20032;-69
2023/06/06 14:34:14;;;;;;;5.75;2.70;;;44.20;16.60;;;;;;6249617;28;20052;-69
2023/06/06 14:37:15;;;;;;;4.78;3.05;;;44.00;16.60;;;;;;6240135;28;20108;-69
2023/06/06 14:40:16;;;;;;;5.43;3.13;;;44.00;16.90;;;;;;6240313;28;20196;-69
2023/06/06 14:43:17;;;;;;;4.97;2.85;;;44.00;16.70;;;;;;6238265;28;20037;-69
2023/06/06 14:46:18;;;;;;;6.88;2.60;;;43.80;16.50;;;;;;6230148;28;20029;-69
2023/06/06 14:49:21;;;;;;;5.07;3.03;;;43.80;16.80;;;;;;6239927;28;20040;-69
2023/06/06 14:52:22;;;;;;;4.53;3.30;;;43.90;16.90;;;;;;6239113;28;20049;-69
2023/06/06 14:55:23;;;;;;;10.10;3.42;;;43.80;16.80;;;;;;6239104;28;20040;-69
2023/06/06 14:58:24;;;;;;;4.85;3.10;;;43.50;17.00;;;;;;6240292;28;20478;-69
2023/06/06 15:01:25;;;;;;;5.13;2.50;;;42.90;17.10;;;;;;6240127;28;20064;-69
2023/06/06 15:04:27;;;;;;;5.22;3.08;;;42.70;17.60;;;;;;6240218;28;20576;-69
2023/06/06 15:07:28;;;;;;;5.90;3.50;;;42.60;17.40;;;;;;6240156;28;20120;-69
2023/06/06 15:10:29;;;;;;;3.53;2.17;;;42.50;17.40;;;;;;6240234;28;20109;-71
2023/06/06 15:13:29;;;;;;;4.53;2.75;;;42.20;17.60;;;;;;6239965;28;20106;-69
2023/06/06 15:16:31;;;;;;;4.10;2.95;;;42.30;17.80;;;;;;6238425;28;20085;-69
2023/06/06 15:19:33;;;;;;;6.28;2.75;;;42.30;17.70;;;;;;6221199;28;20049;-69
2023/06/06 15:22:34;;;;;;;5.13;3.10;;;42.30;17.90;;;;;;6229348;28;20099;-71
2023/06/06 15:25:36;;;;;;;8.07;3.08;;;42.30;17.90;;;;;;6241421;28;20132;-69
2023/06/06 15:28:37;;;;;;;4.25;3.03;;;42.30;17.90;;;;;;6234993;28;20060;-69
2023/06/06 15:31:37;;;;;;;6.47;3.05;;;41.90;18.10;;;;;;6244062;28;20678;-69
2023/06/06 15:34:39;;;;;;;4.53;2.85;;;41.40;18.40;;;;;;6244663;28;20040;-70
2023/06/06 15:37:40;;;;;;;8.02;3.42;;;41.00;18.90;;;;;;6244547;28;20112;-71
2023/06/06 15:40:41;;;;;;;5.70;3.05;;;40.90;19.00;;;;;;6228903;28;20463;-68
2023/06/06 15:43:42;;;;;;;9.27;2.95;;;40.60;19.10;;;;;;6239979;28;20137;-69
2023/06/06 15:46:43;;;;;;;5.72;3.00;;;40.40;19.30;;;;;;6243456;28;20436;-69
2023/06/06 15:49:44;;;;;;;5.03;2.90;;;40.30;19.30;;;;;;6244421;28;20080;-69
2023/06/06 15:52:45;;;;;;;4.30;2.90;;;40.00;19.50;;;;;;6229551;28;20033;-69